Time;durP1;ratioP1;P1;durP2;ratioP2;P2;SDS_P1;SDS_P2;PMS_P1;PMS_P2;Temp;Humidity;BMP_temperature;BMP_pressure;BME280_temperature;BME280_humidity;BME280_pressure;Samples;Min_cycle;Max_cycle;Signal;HPM_P1;HPM_P2
2021/11/24 00:00:10;;;;;;;;;;;21.80;45.80;;;;;;692665;28;1348;-84
2021/11/24 00:00:32;;;;;;;;;;;21.80;45.80;;;;;;690479;28;1315;-91
2021/11/24 00:00:55;;;;;;;;;;;21.80;45.80;;;;;;691648;28;814;-83
2021/11/24 00:01:16;;;;;;;;;;;21.80;45.80;;;;;;692241;28;894;-84
2021/11/24 00:01:36;;;;;;;;;;;21.80;45.90;;;;;;688589;28;1385;-85
2021/11/24 00:01:57;;;;;;;;;;;21.80;45.90;;;;;;691600;28;1373;-84
2021/11/24 00:02:17;;;;;;;;;;;21.90;45.90;;;;;;692023;28;1059;-91
2021/11/24 00:02:38;;;;;;;;;;;21.80;45.90;;;;;;691767;28;1294;-85
2021/11/24 00:02:59;;;;;;;;;;;21.80;45.80;;;;;;689453;28;1305;-84
2021/11/24 00:03:20;;;;;;;;;;;21.80;45.80;;;;;;688757;28;895;-86
2021/11/24 00:03:40;;;;;;;;;;;21.90;45.90;;;;;;691304;28;795;-84
2021/11/24 00:04:04;;;;;;;;;;;21.80;45.90;;;;;;686362;28;1196;-83
2021/11/24 00:04:25;;;;;;;;;;;21.80;45.70;;;;;;687940;28;1290;-83
2021/11/24 00:04:45;;;;;;;;;;;21.80;45.90;;;;;;688857;28;1477;-83
2021/11/24 00:05:06;;;;;;;;;;;21.90;45.90;;;;;;688311;28;1179;-89
2021/11/24 00:05:27;;;;;;;;;;;21.80;45.80;;;;;;685506;28;1349;-87
2021/11/24 00:05:47;;;;;;;;;;;21.80;45.80;;;;;;685697;28;1318;-89
2021/11/24 00:06:08;;;;;;;;;;;21.80;45.80;;;;;;685984;28;778;-83
2021/11/24 00:06:28;;;;;;;;;;;21.80;45.80;;;;;;688281;28;1331;-83
2021/11/24 00:06:49;;;;;;;;;;;21.80;45.80;;;;;;687878;28;1960;-83
2021/11/24 00:07:10;;;;;;;;;;;21.80;45.80;;;;;;685926;28;1213;-83
2021/11/24 00:07:30;;;;;;;;;;;21.90;45.90;;;;;;688463;28;1289;-82
2021/11/24 00:07:51;;;;;;;;;;;21.90;45.90;;;;;;691051;28;1291;-83
2021/11/24 00:08:11;;;;;;;;;;;21.90;45.90;;;;;;688469;28;1246;-89
2021/11/24 00:08:32;;;;;;;;;;;21.80;45.80;;;;;;685948;28;1392;-84
2021/11/24 00:08:52;;;;;;;;;;;21.80;45.90;;;;;;688492;28;850;-84
2021/11/24 00:09:13;;;;;;;;;;;21.90;45.90;;;;;;688460;28;1226;-85
2021/11/24 00:09:34;;;;;;;;;;;21.80;45.90;;;;;;688330;28;1259;-83
2021/11/24 00:09:55;;;;;;;;;;;21.80;45.80;;;;;;688566;28;1336;-85
2021/11/24 00:10:17;;;;;;;;;;;21.80;45.80;;;;;;688307;28;1216;-87
2021/11/24 00:10:38;;;;;;;;;;;21.80;45.80;;;;;;688014;28;1390;-84
2021/11/24 00:10:58;;;;;;;;;;;21.80;45.80;;;;;;688374;28;910;-84
2021/11/24 00:11:19;;;;;;;;;;;21.80;45.90;;;;;;688018;28;1292;-85
2021/11/24 00:11:40;;;;;;;;;;;21.80;45.80;;;;;;688199;28;1031;-85
2021/11/24 00:12:03;;;;;;;;;;;21.80;45.80;;;;;;688426;28;1279;-86
2021/11/24 00:12:24;;;;;;;;;;;21.80;45.80;;;;;;688807;28;798;-86
2021/11/24 00:12:44;;;;;;;;;;;21.80;45.80;;;;;;689051;28;787;-85
2021/11/24 00:13:05;;;;;;;;;;;21.80;45.90;;;;;;689042;28;1247;-86
2021/11/24 00:13:26;;;;;;;;;;;21.80;45.80;;;;;;690802;28;1385;-85
2021/11/24 00:13:46;;;;;;;;;;;21.80;45.90;;;;;;691103;28;976;-84
2021/11/24 00:14:07;;;;;;;;;;;21.80;45.80;;;;;;690908;28;1390;-86
2021/11/24 00:14:29;;;;;;;;;;;21.80;45.80;;;;;;691069;28;1337;-87
2021/11/24 00:14:49;;;;;;;;;;;21.90;46.90;;;;;;691604;28;897;-89
2021/11/24 00:15:11;;;;;;;;;;;21.80;45.80;;;;;;691537;28;1302;-90
2021/11/24 00:15:32;;;;;;;;;;;21.80;45.70;;;;;;691184;28;1421;-89
2021/11/24 00:15:53;;;;;;;;;;;21.80;45.80;;;;;;691294;28;1318;-85
2021/11/24 00:16:13;;;;;;;;;;;21.80;45.80;;;;;;691166;28;775;-85
2021/11/24 00:16:34;;;;;;;;;;;21.80;45.90;;;;;;688211;28;1109;-85
2021/11/24 00:16:55;;;;;;;;;;;21.80;45.90;;;;;;689054;28;814;-88
2021/11/24 00:17:16;;;;;;;;;;;21.80;45.90;;;;;;691427;28;1221;-85
2021/11/24 00:17:37;;;;;;;;;;;21.80;45.90;;;;;;693648;28;1222;-88
2021/11/24 00:17:58;;;;;;;;;;;21.80;45.90;;;;;;693941;28;826;-86
2021/11/24 00:18:18;;;;;;;;;;;21.80;45.90;;;;;;690710;28;1224;-88
2021/11/24 00:18:39;;;;;;;;;;;21.80;45.90;;;;;;690816;28;1348;-84
2021/11/24 00:18:59;;;;;;;;;;;21.80;45.90;;;;;;691046;28;1205;-84
2021/11/24 00:19:20;;;;;;;;;;;21.80;45.90;;;;;;690676;28;1469;-84
2021/11/24 00:19:40;;;;;;;;;;;21.80;45.90;;;;;;690698;28;1347;-85
2021/11/24 00:20:01;;;;;;;;;;;21.80;46.00;;;;;;690905;28;1145;-86
2021/11/24 00:20:22;;;;;;;;;;;21.80;46.00;;;;;;688475;28;1226;-87
2021/11/24 00:20:42;;;;;;;;;;;21.80;46.00;;;;;;688511;28;739;-86
2021/11/24 00:21:03;;;;;;;;;;;21.80;45.90;;;;;;688345;28;1223;-85
2021/11/24 00:21:23;;;;;;;;;;;21.80;46.00;;;;;;688726;28;1375;-87
2021/11/24 00:21:44;;;;;;;;;;;21.80;46.00;;;;;;690917;28;1125;-85
2021/11/24 00:22:05;;;;;;;;;;;21.80;46.00;;;;;;691030;28;1209;-92
2021/11/24 00:22:25;;;;;;;;;;;21.80;46.10;;;;;;691151;28;1224;-86
2021/11/24 00:22:46;;;;;;;;;;;21.80;46.10;;;;;;690917;28;1328;-86
2021/11/24 00:23:06;;;;;;;;;;;21.70;46.10;;;;;;688565;28;1339;-85
2021/11/24 00:23:27;;;;;;;;;;;21.80;46.00;;;;;;690746;28;1288;-85
2021/11/24 00:23:48;;;;;;;;;;;21.80;46.00;;;;;;688337;28;1320;-84
2021/11/24 00:24:08;;;;;;;;;;;21.70;46.10;;;;;;685602;28;1418;-84
2021/11/24 00:24:29;;;;;;;;;;;21.80;46.10;;;;;;685561;28;1180;-86
2021/11/24 00:24:50;;;;;;;;;;;21.70;46.20;;;;;;683236;28;1434;-86
2021/11/24 00:25:10;;;;;;;;;;;21.80;46.30;;;;;;686060;28;1283;-84
2021/11/24 00:25:31;;;;;;;;;;;21.70;46.20;;;;;;686056;28;1245;-86
2021/11/24 00:25:51;;;;;;;;;;;21.80;46.30;;;;;;685818;28;1401;-87
2021/11/24 00:26:12;;;;;;;;;;;21.70;46.20;;;;;;688184;28;779;-90
2021/11/24 00:26:33;;;;;;;;;;;21.70;46.20;;;;;;688667;28;1238;-88
2021/11/24 00:26:53;;;;;;;;;;;21.70;46.20;;;;;;688270;28;1900;-85
2021/11/24 00:27:14;;;;;;;;;;;21.80;46.30;;;;;;688711;28;807;-87
2021/11/24 00:27:35;;;;;;;;;;;21.70;46.20;;;;;;688669;28;1300;-84
2021/11/24 00:27:55;;;;;;;;;;;21.70;46.30;;;;;;691140;28;1228;-86
2021/11/24 00:28:16;;;;;;;;;;;21.70;46.20;;;;;;691148;28;1126;-86
2021/11/24 00:28:37;;;;;;;;;;;21.70;46.20;;;;;;688717;28;1126;-85
2021/11/24 00:28:57;;;;;;;;;;;21.70;46.30;;;;;;686101;28;1252;-84
2021/11/24 00:29:18;;;;;;;;;;;21.70;46.30;;;;;;689050;28;913;-85
2021/11/24 00:29:38;;;;;;;;;;;21.70;46.20;;;;;;688238;28;1195;-85
2021/11/24 00:29:59;;;;;;;;;;;21.70;46.30;;;;;;691048;28;1287;-86
2021/11/24 00:30:19;;;;;;;;;;;21.70;46.30;;;;;;691379;28;1315;-84
2021/11/24 00:30:40;;;;;;;;;;;21.70;46.30;;;;;;691337;28;1241;-86
2021/11/24 00:31:01;;;;;;;;;;;21.70;46.40;;;;;;691813;28;1233;-84
2021/11/24 00:31:21;;;;;;;;;;;21.70;46.30;;;;;;690715;28;1348;-85
2021/11/24 00:31:42;;;;;;;;;;;21.70;46.30;;;;;;691577;28;1106;-87
2021/11/24 00:32:03;;;;;;;;;;;21.70;46.40;;;;;;688581;28;1235;-89
2021/11/24 00:32:23;;;;;;;;;;;21.70;46.40;;;;;;688969;28;1126;-86
2021/11/24 00:32:44;;;;;;;;;;;21.70;46.30;;;;;;688924;28;1372;-89
2021/11/24 00:33:05;;;;;;;;;;;21.70;46.40;;;;;;689199;28;1250;-90
2021/11/24 00:33:26;;;;;;;;;;;21.70;46.40;;;;;;689117;28;1097;-91
2021/11/24 00:33:47;;;;;;;;;;;21.70;46.40;;;;;;691860;28;1320;-89
2021/11/24 00:34:07;;;;;;;;;;;21.70;46.40;;;;;;691250;28;1212;-87
2021/11/24 00:34:28;;;;;;;;;;;21.70;46.40;;;;;;688635;28;1407;-87
2021/11/24 00:34:48;;;;;;;;;;;21.70;46.40;;;;;;688714;28;1289;-86
2021/11/24 00:35:09;;;;;;;;;;;21.70;46.40;;;;;;688802;28;1281;-86
2021/11/24 00:35:30;;;;;;;;;;;21.70;46.50;;;;;;691588;28;1090;-87
2021/11/24 00:35:50;;;;;;;;;;;21.70;46.40;;;;;;689012;28;1380;-89
2021/11/24 00:36:11;;;;;;;;;;;21.70;46.40;;;;;;688638;28;1190;-88
2021/11/24 00:36:31;;;;;;;;;;;21.70;46.40;;;;;;688994;28;1103;-88
2021/11/24 00:36:52;;;;;;;;;;;21.70;46.40;;;;;;686127;28;1270;-89
2021/11/24 00:37:12;;;;;;;;;;;21.70;46.40;;;;;;686173;28;1227;-88
2021/11/24 00:37:33;;;;;;;;;;;21.70;46.50;;;;;;686043;28;1232;-86
2021/11/24 00:37:54;;;;;;;;;;;21.70;46.40;;;;;;686163;28;1409;-86
2021/11/24 00:38:14;;;;;;;;;;;21.70;46.60;;;;;;688582;28;1157;-86
2021/11/24 00:38:35;;;;;;;;;;;21.70;46.50;;;;;;688750;28;1476;-88
2021/11/24 00:38:56;;;;;;;;;;;21.70;46.50;;;;;;686622;28;1352;-89
2021/11/24 00:39:16;;;;;;;;;;;21.70;47.60;;;;;;688933;28;1340;-87
2021/11/24 00:39:37;;;;;;;;;;;21.70;46.50;;;;;;688240;28;1281;-86
2021/11/24 00:39:58;;;;;;;;;;;21.70;46.60;;;;;;685990;28;1123;-88
2021/11/24 00:40:19;;;;;;;;;;;21.70;46.50;;;;;;686029;28;1210;-89
2021/11/24 00:40:41;;;;;;;;;;;21.70;46.60;;;;;;688547;28;1339;-89
2021/11/24 00:41:01;;;;;;;;;;;21.70;46.50;;;;;;688531;28;1386;-89
2021/11/24 00:41:22;;;;;;;;;;;21.70;46.60;;;;;;689070;28;1178;-87
2021/11/24 00:41:42;;;;;;;;;;;21.70;46.60;;;;;;688394;28;1219;-83
2021/11/24 00:42:03;;;;;;;;;;;21.70;46.60;;;;;;685812;28;1113;-85
2021/11/24 00:42:24;;;;;;;;;;;21.70;46.60;;;;;;685842;28;1243;-82
2021/11/24 00:42:45;;;;;;;;;;;21.70;46.60;;;;;;685976;28;1205;-87
2021/11/24 00:43:05;;;;;;;;;;;21.70;46.60;;;;;;688646;28;1337;-82
2021/11/24 00:43:27;;;;;;;;;;;21.70;46.60;;;;;;688390;28;819;-85
2021/11/24 00:43:47;;;;;;;;;;;21.70;46.60;;;;;;688723;28;1118;-87
2021/11/24 00:44:08;;;;;;;;;;;21.70;46.60;;;;;;688480;28;1320;-83
2021/11/24 00:44:29;;;;;;;;;;;21.70;46.70;;;;;;685706;28;1237;-83
2021/11/24 00:44:49;;;;;;;;;;;21.70;46.70;;;;;;686032;28;1212;-88
2021/11/24 00:45:10;;;;;;;;;;;21.60;46.60;;;;;;688366;28;1245;-87
2021/11/24 00:45:31;;;;;;;;;;;21.70;46.70;;;;;;688795;28;894;-84
2021/11/24 00:45:53;;;;;;;;;;;21.60;46.60;;;;;;691368;28;861;-85
2021/11/24 00:46:13;;;;;;;;;;;21.70;46.70;;;;;;691024;28;819;-89
2021/11/24 00:46:34;;;;;;;;;;;21.60;46.80;;;;;;691171;28;1325;-85
2021/11/24 00:46:54;;;;;;;;;;;21.60;46.70;;;;;;691395;28;1898;-85
2021/11/24 00:47:15;;;;;;;;;;;21.60;46.60;;;;;;688756;28;1181;-84
2021/11/24 00:47:36;;;;;;;;;;;21.70;46.70;;;;;;691145;28;858;-90
2021/11/24 00:47:58;;;;;;;;;;;21.60;46.70;;;;;;691273;28;1384;-84
2021/11/24 00:48:20;;;;;;;;;;;21.60;46.70;;;;;;693804;28;1092;-95
2021/11/24 00:48:41;;;;;;;;;;;21.70;46.80;;;;;;690891;28;1346;-79
2021/11/24 00:49:02;;;;;;;;;;;21.60;46.60;;;;;;691417;28;819;-93
2021/11/24 00:49:22;;;;;;;;;;;21.60;46.60;;;;;;691243;28;795;-83
2021/11/24 00:49:43;;;;;;;;;;;21.60;46.60;;;;;;688240;28;1181;-91
2021/11/24 00:50:05;;;;;;;;;;;21.60;46.70;;;;;;685694;28;1210;-83
2021/11/24 00:50:26;;;;;;;;;;;21.60;46.70;;;;;;689050;28;847;-88
2021/11/24 00:50:46;;;;;;;;;;;21.60;47.80;;;;;;690964;28;1208;-90
2021/11/24 00:51:07;;;;;;;;;;;21.60;46.80;;;;;;691094;28;1327;-91
2021/11/24 00:51:27;;;;;;;;;;;21.60;46.70;;;;;;691204;28;1225;-91
2021/11/24 00:51:53;;;;;;;;;;;21.60;46.70;;;;;;691148;28;1347;-88
2021/11/24 00:52:14;;;;;;;;;;;21.70;46.80;;;;;;688372;28;1096;-91
2021/11/24 00:52:35;;;;;;;;;;;21.60;46.70;;;;;;689417;28;1333;-87
2021/11/24 00:52:55;;;;;;;;;;;21.60;46.80;;;;;;691298;28;1252;-91
2021/11/24 00:53:16;;;;;;;;;;;21.60;46.80;;;;;;691054;28;1347;-89
2021/11/24 00:53:36;;;;;;;;;;;21.60;46.80;;;;;;688452;28;1430;-90
2021/11/24 00:53:57;;;;;;;;;;;21.60;46.90;;;;;;688549;28;1358;-90
2021/11/24 00:54:19;;;;;;;;;;;21.60;46.90;;;;;;688346;28;1231;-90
2021/11/24 00:54:39;;;;;;;;;;;21.60;46.80;;;;;;685824;28;907;-88
2021/11/24 00:55:00;;;;;;;;;;;21.60;46.90;;;;;;686571;28;933;-92
2021/11/24 00:55:21;;;;;;;;;;;21.60;46.90;;;;;;689571;28;1439;-87
2021/11/24 00:55:46;;;;;;;;;;;21.60;46.90;;;;;;695724;28;1454;-88
2021/11/24 00:56:07;;;;;;;;;;;21.60;46.90;;;;;;692055;28;1382;-89
2021/11/24 00:56:27;;;;;;;;;;;21.60;46.90;;;;;;691181;28;1271;-89
2021/11/24 00:56:48;;;;;;;;;;;21.60;46.90;;;;;;689017;28;1250;-92
2021/11/24 00:57:09;;;;;;;;;;;21.60;46.90;;;;;;688374;28;1086;-89
2021/11/24 00:57:29;;;;;;;;;;;21.60;46.90;;;;;;688442;28;1340;-93
2021/11/24 00:57:50;;;;;;;;;;;21.60;46.90;;;;;;685550;28;1384;-90
2021/11/24 00:58:11;;;;;;;;;;;21.60;46.90;;;;;;685633;28;1273;-88
2021/11/24 00:58:31;;;;;;;;;;;21.60;46.90;;;;;;686206;28;1444;-91
2021/11/24 00:58:52;;;;;;;;;;;21.60;46.80;;;;;;686119;28;1257;-86
2021/11/24 00:59:12;;;;;;;;;;;21.60;47.00;;;;;;686102;28;929;-90
2021/11/24 00:59:33;;;;;;;;;;;21.60;47.00;;;;;;688384;28;1216;-92
2021/11/24 00:59:54;;;;;;;;;;;21.60;47.00;;;;;;688735;28;1213;-90
2021/11/24 01:00:16;;;;;;;;;;;21.60;47.00;;;;;;688478;28;1214;-85
2021/11/24 01:00:37;;;;;;;;;;;21.60;47.00;;;;;;688211;28;1348;-89
2021/11/24 01:00:58;;;;;;;;;;;21.60;47.00;;;;;;685798;28;1225;-93
2021/11/24 01:01:18;;;;;;;;;;;21.60;47.00;;;;;;685722;28;1219;-92
2021/11/24 01:01:39;;;;;;;;;;;21.60;47.00;;;;;;683569;28;1285;-91
2021/11/24 01:01:59;;;;;;;;;;;21.60;47.00;;;;;;683727;28;1435;-85
2021/11/24 01:02:20;;;;;;;;;;;21.60;47.00;;;;;;683122;29;1146;-88
2021/11/24 01:02:41;;;;;;;;;;;21.60;47.00;;;;;;683288;28;1424;-87
2021/11/24 01:03:02;;;;;;;;;;;21.50;47.00;;;;;;683278;28;1217;-88
2021/11/24 01:03:22;;;;;;;;;;;21.50;47.00;;;;;;686049;28;1344;-91
2021/11/24 01:03:43;;;;;;;;;;;21.60;46.90;;;;;;685732;28;890;-86
2021/11/24 01:04:03;;;;;;;;;;;21.60;47.00;;;;;;685413;28;1219;-90
2021/11/24 01:04:24;;;;;;;;;;;21.60;47.10;;;;;;688261;28;1218;-85
2021/11/24 01:04:44;;;;;;;;;;;21.60;47.10;;;;;;688076;28;1354;-90
2021/11/24 01:05:05;;;;;;;;;;;21.60;47.00;;;;;;688579;28;1450;-87
2021/11/24 01:05:26;;;;;;;;;;;21.60;47.10;;;;;;691063;28;1378;-91
2021/11/24 01:05:46;;;;;;;;;;;21.60;47.10;;;;;;691105;28;1109;-87
2021/11/24 01:06:07;;;;;;;;;;;21.60;47.10;;;;;;691454;28;1390;-87
2021/11/24 01:06:27;;;;;;;;;;;21.60;47.10;;;;;;691157;28;1405;-84
2021/11/24 01:06:48;;;;;;;;;;;21.50;47.10;;;;;;690564;28;1906;-87
2021/11/24 01:07:09;;;;;;;;;;;21.60;47.20;;;;;;688786;28;771;-89
2021/11/24 01:07:29;;;;;;;;;;;21.60;47.10;;;;;;688480;28;1235;-90
2021/11/24 01:07:50;;;;;;;;;;;21.50;47.10;;;;;;688155;28;1370;-86
2021/11/24 01:08:12;;;;;;;;;;;21.60;47.10;;;;;;688490;28;1276;-87
2021/11/24 01:08:32;;;;;;;;;;;21.50;47.10;;;;;;688419;28;1403;-86
2021/11/24 01:08:53;;;;;;;;;;;21.60;47.10;;;;;;688440;28;823;-86
2021/11/24 01:09:13;;;;;;;;;;;21.60;47.20;;;;;;688860;28;1016;-85
2021/11/24 01:09:34;;;;;;;;;;;21.60;47.10;;;;;;688638;28;1247;-85
2021/11/24 01:09:54;;;;;;;;;;;21.60;47.30;;;;;;688456;28;1090;-85
2021/11/24 01:10:15;;;;;;;;;;;21.60;47.10;;;;;;688296;28;1397;-83
2021/11/24 01:10:35;;;;;;;;;;;21.50;47.10;;;;;;688353;28;826;-90
2021/11/24 01:10:57;;;;;;;;;;;21.50;47.10;;;;;;688341;28;1317;-88
2021/11/24 01:11:17;;;;;;;;;;;21.50;47.10;;;;;;688671;28;1382;-87
2021/11/24 01:11:38;;;;;;;;;;;21.50;47.20;;;;;;688246;28;1480;-83
2021/11/24 01:11:59;;;;;;;;;;;21.50;47.10;;;;;;688952;28;854;-87
2021/11/24 01:12:20;;;;;;;;;;;21.60;47.20;;;;;;691160;28;791;-84
2021/11/24 01:12:42;;;;;;;;;;;21.50;47.10;;;;;;688354;28;1312;-86
2021/11/24 01:13:02;;;;;;;;;;;21.60;47.20;;;;;;686158;28;1324;-88
2021/11/24 01:13:23;;;;;;;;;;;21.50;47.20;;;;;;686296;28;1338;-92
2021/11/24 01:13:44;;;;;;;;;;;21.50;47.20;;;;;;686000;28;1242;-94
2021/11/24 01:14:05;;;;;;;;;;;21.50;47.20;;;;;;685823;28;1341;-89
2021/11/24 01:14:26;;;;;;;;;;;21.50;47.20;;;;;;686601;28;1402;-91
2021/11/24 01:14:47;;;;;;;;;;;21.50;47.20;;;;;;689351;28;759;-89
2021/11/24 01:15:08;;;;;;;;;;;21.50;47.20;;;;;;691450;28;1118;-90
2021/11/24 01:15:29;;;;;;;;;;;21.50;47.20;;;;;;692051;28;807;-83
2021/11/24 01:15:49;;;;;;;;;;;21.50;47.20;;;;;;691251;28;1208;-91
2021/11/24 01:16:10;;;;;;;;;;;21.50;47.20;;;;;;688738;28;814;-88
2021/11/24 01:16:31;;;;;;;;;;;21.50;47.20;;;;;;690689;28;1209;-90
2021/11/24 01:16:51;;;;;;;;;;;21.50;47.20;;;;;;690958;28;909;-87
2021/11/24 01:17:12;;;;;;;;;;;21.50;47.20;;;;;;688262;28;1185;-82
2021/11/24 01:17:33;;;;;;;;;;;21.50;47.20;;;;;;688384;28;1320;-91
2021/11/24 01:17:53;;;;;;;;;;;21.50;47.20;;;;;;688473;28;890;-90
2021/11/24 01:18:14;;;;;;;;;;;21.50;47.20;;;;;;688004;28;1208;-93
2021/11/24 01:18:35;;;;;;;;;;;21.50;47.30;;;;;;685694;28;1364;-91
2021/11/24 01:18:55;;;;;;;;;;;21.50;47.30;;;;;;683476;28;1362;-92
2021/11/24 01:19:17;;;;;;;;;;;21.50;47.20;;;;;;683037;29;1311;-90
2021/11/24 01:19:37;;;;;;;;;;;21.50;47.20;;;;;;683363;28;1209;-87
2021/11/24 01:19:58;;;;;;;;;;;21.50;47.20;;;;;;690890;28;1226;-90
2021/11/24 01:20:18;;;;;;;;;;;21.50;47.20;;;;;;688746;28;1241;-89
2021/11/24 01:20:42;;;;;;;;;;;21.50;47.20;;;;;;691049;28;1390;-86
2021/11/24 01:21:03;;;;;;;;;;;21.50;47.20;;;;;;691106;28;1277;-91
2021/11/24 01:21:23;;;;;;;;;;;21.50;47.20;;;;;;691199;28;1094;-90
2021/11/24 01:21:44;;;;;;;;;;;21.50;47.20;;;;;;691153;28;1201;-84
2021/11/24 01:22:05;;;;;;;;;;;21.50;47.30;;;;;;691039;28;1351;-87
2021/11/24 01:22:26;;;;;;;;;;;21.50;47.30;;;;;;691101;28;1311;-91
2021/11/24 01:22:46;;;;;;;;;;;21.50;47.30;;;;;;693466;28;1338;-89
2021/11/24 01:23:07;;;;;;;;;;;21.50;47.30;;;;;;690710;28;1208;-91
2021/11/24 01:23:27;;;;;;;;;;;21.50;47.30;;;;;;688345;28;1173;-92
2021/11/24 01:23:48;;;;;;;;;;;21.50;47.20;;;;;;688605;28;1344;-91
2021/11/24 01:24:09;;;;;;;;;;;21.50;47.30;;;;;;688195;28;1252;-93
2021/11/24 01:24:29;;;;;;;;;;;21.50;47.20;;;;;;688775;28;1248;-90
2021/11/24 01:24:50;;;;;;;;;;;21.50;47.30;;;;;;688327;28;1255;-85
2021/11/24 01:25:10;;;;;;;;;;;21.50;47.30;;;;;;688096;28;1277;-86
2021/11/24 01:25:31;;;;;;;;;;;21.50;47.40;;;;;;688770;28;795;-89
2021/11/24 01:25:51;;;;;;;;;;;21.50;47.40;;;;;;688461;28;1220;-89
2021/11/24 01:26:12;;;;;;;;;;;21.50;47.40;;;;;;690456;28;1194;-87
2021/11/24 01:26:33;;;;;;;;;;;21.50;47.40;;;;;;685782;28;1305;-89
2021/11/24 01:26:54;;;;;;;;;;;21.50;47.30;;;;;;685968;28;1903;-92
2021/11/24 01:27:14;;;;;;;;;;;21.50;47.20;;;;;;685445;28;1302;-91
2021/11/24 01:27:35;;;;;;;;;;;21.50;47.40;;;;;;683290;28;1103;-90
2021/11/24 01:27:56;;;;;;;;;;;21.50;47.30;;;;;;683346;28;1169;-90
2021/11/24 01:28:17;;;;;;;;;;;21.50;47.30;;;;;;686039;28;1371;-91
2021/11/24 01:28:37;;;;;;;;;;;21.50;47.30;;;;;;688673;28;867;-91
2021/11/24 01:28:58;;;;;;;;;;;21.50;47.30;;;;;;688300;28;1333;-89
2021/11/24 01:29:18;;;;;;;;;;;21.50;47.40;;;;;;688785;28;1230;-89
2021/11/24 01:29:39;;;;;;;;;;;21.50;47.50;;;;;;688437;28;1158;-92
2021/11/24 01:30:00;;;;;;;;;;;21.50;47.40;;;;;;688562;28;827;-86
2021/11/24 01:30:20;;;;;;;;;;;21.50;47.50;;;;;;688377;28;1351;-87
2021/11/24 01:30:41;;;;;;;;;;;21.50;47.30;;;;;;688413;28;775;-86
2021/11/24 01:31:01;;;;;;;;;;;21.50;47.30;;;;;;685716;28;1296;-85
2021/11/24 01:31:22;;;;;;;;;;;21.50;47.30;;;;;;688770;28;866;-89
2021/11/24 01:31:43;;;;;;;;;;;21.50;47.30;;;;;;688440;28;1170;-81
2021/11/24 01:32:03;;;;;;;;;;;21.50;47.30;;;;;;690925;28;1319;-87
2021/11/24 01:32:24;;;;;;;;;;;21.50;47.40;;;;;;688490;28;1387;-81
2021/11/24 01:32:44;;;;;;;;;;;21.50;47.30;;;;;;689699;28;839;-83
2021/11/24 01:33:05;;;;;;;;;;;21.50;47.40;;;;;;691430;28;791;-86
2021/11/24 01:33:26;;;;;;;;;;;21.50;47.30;;;;;;692178;28;1296;-87
2021/11/24 01:33:46;;;;;;;;;;;21.50;47.30;;;;;;692663;28;1466;-86
2021/11/24 01:34:07;;;;;;;;;;;21.50;47.30;;;;;;694231;28;1322;-81
2021/11/24 01:34:27;;;;;;;;;;;21.50;47.30;;;;;;694690;28;826;-86
2021/11/24 01:34:48;;;;;;;;;;;21.50;47.30;;;;;;694821;28;865;-81
2021/11/24 01:35:09;;;;;;;;;;;21.50;47.40;;;;;;695011;28;845;-86
2021/11/24 01:35:30;;;;;;;;;;;21.50;47.40;;;;;;696187;28;882;-89
2021/11/24 01:35:50;;;;;;;;;;;21.50;47.30;;;;;;692964;28;863;-82
2021/11/24 01:36:11;;;;;;;;;;;21.50;47.30;;;;;;695648;28;885;-86
2021/11/24 01:36:32;;;;;;;;;;;21.50;47.40;;;;;;691737;28;1491;-84
2021/11/24 01:36:52;;;;;;;;;;;21.50;47.30;;;;;;689088;28;1229;-84
2021/11/24 01:37:15;;;;;;;;;;;21.50;47.30;;;;;;689406;28;842;-84
2021/11/24 01:37:38;;;;;;;;;;;21.50;47.30;;;;;;690235;28;1181;-84
2021/11/24 01:37:59;;;;;;;;;;;21.50;47.30;;;;;;693144;28;1186;-85
2021/11/24 01:38:20;;;;;;;;;;;21.50;47.30;;;;;;693416;28;1099;-84
2021/11/24 01:38:40;;;;;;;;;;;21.50;47.30;;;;;;692899;28;1268;-82
2021/11/24 01:39:01;;;;;;;;;;;21.50;47.30;;;;;;692875;28;1192;-84
2021/11/24 01:39:21;;;;;;;;;;;21.50;47.40;;;;;;689663;28;1117;-87
2021/11/24 01:39:42;;;;;;;;;;;21.50;47.30;;;;;;689445;28;1405;-87
2021/11/24 01:40:05;;;;;;;;;;;21.50;47.30;;;;;;686808;28;914;-83
2021/11/24 01:40:26;;;;;;;;;;;21.50;47.30;;;;;;688668;28;1170;-84
2021/11/24 01:40:47;;;;;;;;;;;21.50;47.30;;;;;;686826;28;1261;-86
2021/11/24 01:41:07;;;;;;;;;;;21.50;47.30;;;;;;687083;28;1491;-82
2021/11/24 01:41:28;;;;;;;;;;;21.50;47.40;;;;;;689014;28;1293;-85
2021/11/24 01:41:48;;;;;;;;;;;21.50;47.40;;;;;;689846;28;1412;-83
2021/11/24 01:42:10;;;;;;;;;;;21.50;47.40;;;;;;691816;28;759;-80
2021/11/24 01:42:30;;;;;;;;;;;21.50;47.50;;;;;;691772;28;858;-85
2021/11/24 01:42:51;;;;;;;;;;;21.50;47.30;;;;;;689671;28;1139;-83
2021/11/24 01:43:11;;;;;;;;;;;21.50;47.30;;;;;;689406;28;1368;-84
2021/11/24 01:43:32;;;;;;;;;;;21.50;47.30;;;;;;693065;28;898;-83
2021/11/24 01:43:53;;;;;;;;;;;21.50;47.40;;;;;;692906;28;898;-83
2021/11/24 01:44:24;;;;;;;;;;;21.50;47.40;;;;;;695330;28;1350;-87
2021/11/24 01:44:45;;;;;;;;;;;21.50;47.40;;;;;;694939;28;1305;-85
2021/11/24 01:45:07;;;;;;;;;;;21.50;47.30;;;;;;696772;28;1448;-83
2021/11/24 01:45:27;;;;;;;;;;;21.50;47.40;;;;;;698280;28;1122;-84
2021/11/24 01:45:48;;;;;;;;;;;21.50;47.30;;;;;;698763;28;877;-83
2021/11/24 01:46:08;;;;;;;;;;;21.50;47.30;;;;;;697937;28;809;-85
2021/11/24 01:46:29;;;;;;;;;;;21.50;47.40;;;;;;694413;28;1323;-83
2021/11/24 01:46:54;;;;;;;;;;;21.50;47.40;;;;;;692046;28;2009;-84
2021/11/24 01:47:14;;;;;;;;;;;21.50;47.30;;;;;;693531;28;870;-84
2021/11/24 01:47:35;;;;;;;;;;;21.50;47.30;;;;;;695925;28;798;-83
2021/11/24 01:47:56;;;;;;;;;;;21.50;47.40;;;;;;695590;28;841;-83
2021/11/24 01:48:17;;;;;;;;;;;21.50;47.40;;;;;;696293;28;1361;-85
2021/11/24 01:48:37;;;;;;;;;;;21.50;47.40;;;;;;695671;28;1350;-83
2021/11/24 01:48:58;;;;;;;;;;;21.50;47.40;;;;;;695704;28;802;-86
2021/11/24 01:49:18;;;;;;;;;;;21.50;47.40;;;;;;695212;28;1453;-84
2021/11/24 01:49:39;;;;;;;;;;;21.50;47.40;;;;;;695277;28;912;-85
2021/11/24 01:49:59;;;;;;;;;;;21.50;47.40;;;;;;694357;28;1669;-85
2021/11/24 01:50:21;;;;;;;;;;;21.50;47.40;;;;;;691606;28;1371;-84
2021/11/24 01:50:41;;;;;;;;;;;21.50;47.40;;;;;;696802;28;874;-85
2021/11/24 01:51:02;;;;;;;;;;;21.50;47.50;;;;;;696477;28;822;-85
2021/11/24 01:51:23;;;;;;;;;;;21.50;47.40;;;;;;691411;28;1298;-85
2021/11/24 01:51:43;;;;;;;;;;;21.50;47.30;;;;;;691457;28;886;-85
2021/11/24 01:52:04;;;;;;;;;;;21.50;47.30;;;;;;689053;28;1223;-84
2021/11/24 01:52:24;;;;;;;;;;;21.50;47.40;;;;;;688699;28;1284;-87
2021/11/24 01:52:45;;;;;;;;;;;21.50;47.40;;;;;;688718;28;1368;-86
2021/11/24 01:53:06;;;;;;;;;;;21.50;47.50;;;;;;689006;28;929;-85
2021/11/24 01:53:28;;;;;;;;;;;21.50;47.30;;;;;;691499;28;1056;-86
2021/11/24 01:53:48;;;;;;;;;;;21.40;47.30;;;;;;691942;28;819;-86
2021/11/24 01:54:09;;;;;;;;;;;21.50;47.40;;;;;;694245;28;810;-86
2021/11/24 01:54:30;;;;;;;;;;;21.50;47.40;;;;;;691892;28;1184;-86
2021/11/24 01:54:50;;;;;;;;;;;21.50;47.50;;;;;;694100;28;885;-86
2021/11/24 01:55:12;;;;;;;;;;;21.50;47.50;;;;;;694047;28;1478;-86
2021/11/24 01:55:33;;;;;;;;;;;21.50;47.40;;;;;;694092;28;1563;-86
2021/11/24 01:55:57;;;;;;;;;;;21.50;48.60;;;;;;694378;28;755;-86
2021/11/24 01:56:21;;;;;;;;;;;21.50;47.50;;;;;;695040;28;1382;-87
2021/11/24 01:56:42;;;;;;;;;;;21.50;47.50;;;;;;692836;28;881;-86
2021/11/24 01:57:03;;;;;;;;;;;21.50;47.50;;;;;;688566;28;1461;-87
2021/11/24 01:57:27;;;;;;;;;;;21.50;47.50;;;;;;687347;28;1136;-86
2021/11/24 01:57:48;;;;;;;;;;;21.50;47.50;;;;;;688873;28;862;-88
2021/11/24 01:58:09;;;;;;;;;;;21.50;47.50;;;;;;686020;28;1568;-86
2021/11/24 01:58:30;;;;;;;;;;;21.50;47.50;;;;;;687105;28;922;-85
2021/11/24 01:58:50;;;;;;;;;;;21.50;47.50;;;;;;689620;28;1224;-87
2021/11/24 01:59:12;;;;;;;;;;;21.50;47.50;;;;;;692243;28;1343;-86
2021/11/24 01:59:33;;;;;;;;;;;21.50;47.40;;;;;;691283;28;1340;-85
2021/11/24 01:59:55;;;;;;;;;;;21.50;47.50;;;;;;691026;28;1350;-85
2021/11/24 02:00:20;;;;;;;;;;;21.50;47.40;;;;;;686093;28;1267;-84
2021/11/24 02:00:41;;;;;;;;;;;21.50;47.40;;;;;;688650;28;1279;-84
2021/11/24 02:01:02;;;;;;;;;;;21.50;47.40;;;;;;688824;28;811;-84
2021/11/24 02:01:22;;;;;;;;;;;21.50;47.40;;;;;;689900;28;1021;-83
2021/11/24 02:01:44;;;;;;;;;;;21.50;47.40;;;;;;691394;28;814;-84
2021/11/24 02:02:04;;;;;;;;;;;21.50;47.40;;;;;;692316;28;1380;-84
2021/11/24 02:02:26;;;;;;;;;;;21.50;47.30;;;;;;691017;28;1499;-84
2021/11/24 02:02:46;;;;;;;;;;;21.50;47.30;;;;;;691448;28;818;-86
2021/11/24 02:03:07;;;;;;;;;;;21.50;47.40;;;;;;691410;28;861;-85
2021/11/24 02:03:27;;;;;;;;;;;21.50;47.40;;;;;;690945;28;1330;-85
2021/11/24 02:03:48;;;;;;;;;;;21.50;47.30;;;;;;691502;28;791;-85
2021/11/24 02:04:09;;;;;;;;;;;21.50;47.30;;;;;;691776;28;803;-85
2021/11/24 02:04:29;;;;;;;;;;;21.50;47.30;;;;;;694253;28;783;-83
2021/11/24 02:04:50;;;;;;;;;;;21.50;47.30;;;;;;694088;28;922;-85
2021/11/24 02:05:11;;;;;;;;;;;21.50;47.30;;;;;;694201;28;771;-84
2021/11/24 02:05:32;;;;;;;;;;;21.50;47.30;;;;;;694338;28;837;-84